Time;durP1;ratioP1;P1;durP2;ratioP2;P2;SDS_P1;SDS_P2;PMS_P1;PMS_P2;Temp;Humidity;BMP_temperature;BMP_pressure;BME280_temperature;BME280_humidity;BME280_pressure;Samples;Min_cycle;Max_cycle;Signal;HPM_P1;HPM_P2
2022/11/06 00:01:22;;;;;;;10.73;5.10;;;;;;;;;;737332;190;815149;-74
2022/11/06 00:03:48;;;;;;;8.77;4.67;;;;;;;;;;737712;187;956800;-73
2022/11/06 00:08:45;;;;;;;11.37;5.47;;;;;;;;;;731898;189;994290;-74
2022/11/06 00:11:11;;;;;;;15.80;5.87;;;;;;;;;;742883;190;813483;-74
2022/11/06 00:13:37;;;;;;;11.93;4.77;;;;;;;;;;715575;195;919101;-74
2022/11/06 00:16:03;;;;;;;13.73;5.40;;;;;;;;;;729304;191;918786;-74
2022/11/06 00:18:29;;;;;;;10.40;5.23;;;;;;;;;;733228;187;816449;-74
2022/11/06 00:20:55;;;;;;;12.43;5.53;;;;;;;;;;732807;190;919242;-74
2022/11/06 00:23:21;;;;;;;13.23;8.30;;;;;;;;;;733153;190;918486;-74
2022/11/06 00:25:51;;;;;;;11.40;4.85;;;;;;;;;;737940;190;816716;-74
2022/11/06 00:28:12;;;;;;;8.33;4.70;;;;;;;;;;743908;188;816572;-73
2022/11/06 00:30:38;;;;;;;11.73;5.50;;;;;;;;;;737598;190;817868;-74
2022/11/06 00:33:04;;;;;;;13.23;5.77;;;;;;;;;;735227;190;919654;-73
2022/11/06 00:35:31;;;;;;;14.70;6.67;;;;;;;;;;741768;190;941026;-74
2022/11/06 00:37:57;;;;;;;12.23;6.70;;;;;;;;;;727327;191;920464;-74
2022/11/06 00:40:23;;;;;;;14.23;5.30;;;;;;;;;;731124;190;917892;-74
2022/11/06 00:42:48;;;;;;;10.67;5.83;;;;;;;;;;739372;189;916349;-73
2022/11/06 00:45:14;;;;;;;11.47;5.17;;;;;;;;;;733450;189;916116;-74
2022/11/06 00:47:40;;;;;;;21.23;7.90;;;;;;;;;;725690;189;916470;-74
2022/11/06 00:50:06;;;;;;;11.80;5.10;;;;;;;;;;729241;190;880916;-74
2022/11/06 00:52:32;;;;;;;8.27;5.17;;;;;;;;;;734736;190;918621;-73
2022/11/06 00:54:58;;;;;;;13.13;7.00;;;;;;;;;;734644;190;918527;-74
2022/11/06 00:57:24;;;;;;;14.70;4.70;;;;;;;;;;732311;191;919825;-73
2022/11/06 00:59:49;;;;;;;12.57;5.40;;;;;;;;;;741130;187;918378;-73
2022/11/06 01:02:18;;;;;;;12.90;5.67;;;;;;;;;;735673;191;1021499;-73
2022/11/06 01:04:41;;;;;;;10.50;5.10;;;;;;;;;;735764;188;917825;-73
2022/11/06 01:07:07;;;;;;;10.67;4.60;;;;;;;;;;739871;190;803783;-73
2022/11/06 01:09:33;;;;;;;13.10;7.40;;;;;;;;;;733742;190;918594;-73
2022/11/06 01:11:59;;;;;;;12.90;6.73;;;;;;;;;;730642;191;920415;-73
2022/11/06 01:14:25;;;;;;;10.50;5.50;;;;;;;;;;737873;190;814690;-73
2022/11/06 01:16:50;;;;;;;12.87;7.03;;;;;;;;;;727874;191;914582;-73
2022/11/06 01:19:16;;;;;;;7.47;5.17;;;;;;;;;;733328;188;918102;-73
2022/11/06 01:21:42;;;;;;;14.63;4.53;;;;;;;;;;732935;191;919369;-73
2022/11/06 01:24:09;;;;;;;9.43;4.63;;;;;;;;;;747530;187;919643;-73
2022/11/06 01:26:35;;;;;;;15.70;4.70;;;;;;;;;;729676;191;918429;-73
2022/11/06 01:29:01;;;;;;;11.00;5.27;;;;;;;;;;723700;191;919502;-73
2022/11/06 01:31:26;;;;;;;11.13;5.53;;;;;;;;;;739732;188;918640;-73
2022/11/06 01:33:52;;;;;;;10.03;5.20;;;;;;;;;;733399;189;919666;-74
2022/11/06 01:36:18;;;;;;;11.03;4.53;;;;;;;;;;731998;190;1021697;-73
2022/11/06 01:38:44;;;;;;;10.73;4.90;;;;;;;;;;738955;187;918356;-73
2022/11/06 01:41:11;;;;;;;9.63;5.33;;;;;;;;;;737382;190;923591;-73
2022/11/06 01:43:42;;;;;;;10.43;5.07;;;;;;;;;;731875;189;920329;-74
2022/11/06 01:46:08;;;;;;;15.40;5.20;;;;;;;;;;733179;189;919181;-73
2022/11/06 01:48:34;;;;;;;13.33;4.70;;;;;;;;;;736502;190;874725;-74
2022/11/06 01:51:00;;;;;;;11.27;4.27;;;;;;;;;;730209;190;917753;-73
2022/11/06 01:53:26;;;;;;;9.43;4.07;;;;;;;;;;724936;187;916947;-72
2022/11/06 01:55:52;;;;;;;10.03;5.30;;;;;;;;;;736296;187;628957;-73
2022/11/06 01:58:18;;;;;;;8.30;4.40;;;;;;;;;;728727;188;916586;-73
2022/11/06 02:00:43;;;;;;;8.97;4.47;;;;;;;;;;735398;191;919023;-74
2022/11/06 02:03:11;;;;;;;7.87;5.53;;;;;;;;;;728548;190;914079;-74
2022/11/06 02:05:35;;;;;;;9.60;4.27;;;;;;;;;;737062;185;915045;-73
2022/11/06 02:08:01;;;;;;;13.53;4.77;;;;;;;;;;731473;188;918582;-73
2022/11/06 02:10:27;;;;;;;6.27;3.90;;;;;;;;;;735778;191;916958;-73
2022/11/06 02:12:57;;;;;;;7.63;4.53;;;;;;;;;;738096;191;911351;-74
2022/11/06 02:15:26;;;;;;;13.70;5.63;;;;;;;;;;704484;197;874830;-73
2022/11/06 02:18:07;;;;;;;11.20;5.30;;;;;;;;;;731018;190;883230;-73
2022/11/06 02:20:34;;;;;;;14.53;5.87;;;;;;;;;;737323;189;918660;-73
2022/11/06 02:22:59;;;;;;;9.87;5.43;;;;;;;;;;727742;190;919189;-73
2022/11/06 02:25:37;;;;;;;10.20;4.93;;;;;;;;;;739061;189;870184;-74
2022/11/06 02:28:03;;;;;;;9.40;4.20;;;;;;;;;;731620;190;917552;-73
2022/11/06 02:30:30;;;;;;;8.73;4.20;;;;;;;;;;723621;191;919440;-74
2022/11/06 02:32:56;;;;;;;9.07;5.00;;;;;;;;;;729220;188;918861;-74
2022/11/06 02:35:29;;;;;;;13.33;4.93;;;;;;;;;;744207;188;815941;-74
2022/11/06 02:37:56;;;;;;;7.50;4.27;;;;;;;;;;733912;190;816718;-74
2022/11/06 02:40:22;;;;;;;8.90;5.37;;;;;;;;;;724782;190;917156;-74
2022/11/06 02:42:47;;;;;;;7.78;5.03;;;;;;;;;;737796;189;918607;-74
2022/11/06 02:45:13;;;;;;;7.33;4.43;;;;;;;;;;736661;190;919593;-74
2022/11/06 02:47:39;;;;;;;7.60;5.47;;;;;;;;;;733892;190;919031;-74
2022/11/06 02:50:08;;;;;;;14.27;5.93;;;;;;;;;;736262;189;920768;-73
2022/11/06 02:52:44;;;;;;;11.07;6.70;;;;;;;;;;740270;189;1021344;-74
2022/11/06 02:55:10;;;;;;;10.50;5.80;;;;;;;;;;734155;190;917890;-73
2022/11/06 02:57:36;;;;;;;9.53;4.17;;;;;;;;;;732326;191;919140;-74
2022/11/06 03:00:03;;;;;;;13.60;4.78;;;;;;;;;;731701;191;918970;-73
2022/11/06 03:02:29;;;;;;;9.17;5.80;;;;;;;;;;734527;188;919105;-73
2022/11/06 03:04:58;;;;;;;7.70;5.30;;;;;;;;;;730411;189;917958;-74
2022/11/06 03:07:24;;;;;;;14.47;5.47;;;;;;;;;;734001;190;921626;-73
2022/11/06 03:09:50;;;;;;;9.82;5.22;;;;;;;;;;735559;190;915048;-74
2022/11/06 03:12:24;;;;;;;14.23;5.07;;;;;;;;;;737033;190;918843;-74
2022/11/06 03:14:53;;;;;;;10.13;4.37;;;;;;;;;;734404;189;915505;-73
2022/11/06 03:17:20;;;;;;;8.77;4.07;;;;;;;;;;732284;190;899164;-73
2022/11/06 03:19:46;;;;;;;9.18;4.82;;;;;;;;;;728940;189;918687;-73
2022/11/06 03:22:14;;;;;;;8.90;4.40;;;;;;;;;;715035;196;918736;-74
2022/11/06 03:24:46;;;;;;;7.63;4.57;;;;;;;;;;714977;193;818830;-75
2022/11/06 03:27:12;;;;;;;8.13;4.80;;;;;;;;;;708493;196;915643;-75
2022/11/06 03:29:39;;;;;;;8.50;5.47;;;;;;;;;;738805;188;808108;-73
2022/11/06 03:32:20;;;;;;;5.60;3.83;;;;;;;;;;730092;190;916175;-73
2022/11/06 03:34:51;;;;;;;10.10;5.43;;;;;;;;;;733644;188;918676;-74
2022/11/06 03:37:17;;;;;;;9.20;5.00;;;;;;;;;;729273;191;919090;-73
2022/11/06 03:39:43;;;;;;;14.00;6.57;;;;;;;;;;727757;189;1019916;-74
2022/11/06 03:42:09;;;;;;;13.30;4.50;;;;;;;;;;735076;190;918701;-73
2022/11/06 03:44:35;;;;;;;10.93;4.80;;;;;;;;;;727742;188;918694;-73
2022/11/06 03:47:00;;;;;;;10.15;5.15;;;;;;;;;;728276;191;919219;-73
2022/11/06 03:49:26;;;;;;;8.63;5.03;;;;;;;;;;738914;189;919256;-73
2022/11/06 03:51:52;;;;;;;7.70;5.30;;;;;;;;;;733571;189;918385;-74
2022/11/06 03:54:19;;;;;;;9.53;4.97;;;;;;;;;;732494;189;918040;-74
2022/11/06 03:56:46;;;;;;;6.27;4.33;;;;;;;;;;735705;190;919313;-74
2022/11/06 03:59:13;;;;;;;15.67;4.13;;;;;;;;;;730419;189;816855;-73
2022/11/06 04:01:38;;;;;;;9.70;4.67;;;;;;;;;;731153;190;912803;-74
2022/11/06 04:04:05;;;;;;;13.23;5.93;;;;;;;;;;733477;188;919706;-74
2022/11/06 04:06:31;;;;;;;10.50;4.87;;;;;;;;;;736361;190;919284;-74
2022/11/06 04:14:00;;;;;;;9.90;6.23;;;;;;;;;;733750;189;919260;-73
2022/11/06 04:16:25;;;;;;;11.10;5.80;;;;;;;;;;736544;190;818275;-74
2022/11/06 04:18:51;;;;;;;15.93;6.00;;;;;;;;;;729648;189;916469;-74
2022/11/06 04:21:34;;;;;;;11.20;6.20;;;;;;;;;;730618;190;916471;-74
2022/11/06 04:26:35;;;;;;;7.00;5.80;;;;;;;;;;729449;189;913977;-73
2022/11/06 04:29:02;;;;;;;8.67;5.50;;;;;;;;;;734801;187;816327;-74
2022/11/06 04:31:31;;;;;;;12.80;5.73;;;;;;;;;;731163;191;919273;-74
2022/11/06 04:34:04;;;;;;;11.43;5.10;;;;;;;;;;729452;190;919475;-73
2022/11/06 04:36:36;;;;;;;8.57;5.10;;;;;;;;;;731404;190;916314;-73
2022/11/06 04:39:17;;;;;;;12.23;5.30;;;;;;;;;;737271;188;919570;-73
2022/11/06 04:42:01;;;;;;;15.13;6.30;;;;;;;;;;737466;190;917145;-72
2022/11/06 04:44:29;;;;;;;14.53;4.70;;;;;;;;;;738515;187;918300;-73
2022/11/06 04:46:55;;;;;;;13.83;7.30;;;;;;;;;;727640;190;918440;-73
2022/11/06 04:49:21;;;;;;;8.33;4.97;;;;;;;;;;731451;188;918103;-74
2022/11/06 04:51:46;;;;;;;11.15;5.50;;;;;;;;;;728429;190;1021750;-73
2022/11/06 04:54:12;;;;;;;11.20;4.73;;;;;;;;;;732617;189;915620;-72
2022/11/06 04:56:38;;;;;;;9.33;5.07;;;;;;;;;;706559;198;918320;-72
2022/11/06 04:59:04;;;;;;;9.90;4.95;;;;;;;;;;719069;192;918966;-73
2022/11/06 05:01:30;;;;;;;14.13;4.67;;;;;;;;;;733836;190;914392;-73
2022/11/06 05:03:56;;;;;;;8.43;4.90;;;;;;;;;;734510;188;918956;-73
2022/11/06 05:06:22;;;;;;;12.77;5.40;;;;;;;;;;736571;189;918738;-74
2022/11/06 05:08:47;;;;;;;13.23;5.60;;;;;;;;;;738107;188;918146;-73
2022/11/06 05:11:13;;;;;;;17.33;5.77;;;;;;;;;;731422;190;918984;-74
2022/11/06 05:13:39;;;;;;;19.10;5.60;;;;;;;;;;734447;187;919147;-73
2022/11/06 05:16:05;;;;;;;9.30;4.43;;;;;;;;;;727360;190;919172;-74
2022/11/06 05:18:31;;;;;;;7.57;4.67;;;;;;;;;;739506;187;918741;-74
2022/11/06 05:23:30;;;;;;;10.70;5.87;;;;;;;;;;729100;190;918445;-74
2022/11/06 05:25:56;;;;;;;10.33;5.73;;;;;;;;;;733875;190;919140;-74
2022/11/06 05:28:22;;;;;;;11.57;6.00;;;;;;;;;;734125;189;919827;-73
2022/11/06 05:30:47;;;;;;;11.30;5.70;;;;;;;;;;733482;190;918825;-74
2022/11/06 05:33:13;;;;;;;11.97;7.00;;;;;;;;;;732509;188;919173;-73
2022/11/06 05:35:39;;;;;;;8.70;6.20;;;;;;;;;;737805;190;816824;-75
2022/11/06 05:38:05;;;;;;;16.80;7.00;;;;;;;;;;729483;190;923819;-75
2022/11/06 05:40:31;;;;;;;11.07;5.97;;;;;;;;;;733545;190;816039;-74
2022/11/06 05:42:57;;;;;;;15.83;7.23;;;;;;;;;;740172;189;919726;-75
2022/11/06 05:45:22;;;;;;;14.37;6.03;;;;;;;;;;728396;191;917927;-74
2022/11/06 05:47:48;;;;;;;18.27;7.60;;;;;;;;;;732878;191;912926;-74
2022/11/06 05:50:14;;;;;;;17.73;7.20;;;;;;;;;;737043;189;907435;-74
2022/11/06 05:52:40;;;;;;;13.70;7.62;;;;;;;;;;733700;189;817208;-73
2022/11/06 05:55:06;;;;;;;22.20;8.67;;;;;;;;;;730599;191;1021683;-74
2022/11/06 05:57:33;;;;;;;15.88;8.13;;;;;;;;;;733184;184;919026;-74
2022/11/06 05:59:58;;;;;;;22.67;9.00;;;;;;;;;;730482;191;919196;-75
2022/11/06 06:02:24;;;;;;;20.60;8.30;;;;;;;;;;733403;190;919379;-75
2022/11/06 06:04:50;;;;;;;14.37;9.00;;;;;;;;;;731764;189;919272;-75
2022/11/06 06:07:16;;;;;;;14.47;7.77;;;;;;;;;;739623;190;621358;-75
2022/11/06 06:09:42;;;;;;;21.87;9.83;;;;;;;;;;735998;189;628153;-74
2022/11/06 06:12:08;;;;;;;15.47;9.43;;;;;;;;;;732341;190;920313;-74
2022/11/06 06:14:33;;;;;;;44.53;39.83;;;;;;;;;;734211;191;781275;-74
2022/11/06 06:16:59;;;;;;;14.67;8.20;;;;;;;;;;737833;189;919268;-75
2022/11/06 06:19:25;;;;;;;12.60;8.10;;;;;;;;;;737032;190;627311;-75
2022/11/06 06:21:51;;;;;;;18.60;9.60;;;;;;;;;;736422;189;917864;-75
2022/11/06 06:24:17;;;;;;;15.60;8.73;;;;;;;;;;735070;190;815287;-74
2022/11/06 06:26:43;;;;;;;18.73;11.37;;;;;;;;;;733854;190;921219;-74
2022/11/06 06:29:08;;;;;;;28.97;9.90;;;;;;;;;;734069;188;912608;-74
2022/11/06 06:31:34;;;;;;;27.13;13.27;;;;;;;;;;736421;189;915457;-76
2022/11/06 06:34:00;;;;;;;15.03;11.17;;;;;;;;;;733272;188;930539;-74
2022/11/06 06:36:26;;;;;;;17.23;9.10;;;;;;;;;;733345;190;913613;-75
2022/11/06 06:38:52;;;;;;;17.77;9.17;;;;;;;;;;737495;188;774398;-74
2022/11/06 06:41:18;;;;;;;24.43;9.83;;;;;;;;;;733163;190;629576;-74
2022/11/06 06:43:44;;;;;;;21.83;9.97;;;;;;;;;;733731;188;918720;-75
2022/11/06 06:46:09;;;;;;;31.50;18.63;;;;;;;;;;738132;190;890127;-75
2022/11/06 06:48:35;;;;;;;28.13;16.90;;;;;;;;;;735274;189;918619;-74
2022/11/06 06:51:01;;;;;;;16.80;11.85;;;;;;;;;;734957;190;1005837;-75
2022/11/06 06:53:27;;;;;;;24.43;12.93;;;;;;;;;;733961;188;909952;-75
2022/11/06 06:55:53;;;;;;;20.00;9.93;;;;;;;;;;743558;185;1020771;-77
2022/11/06 06:58:19;;;;;;;15.47;9.73;;;;;;;;;;732800;188;919282;-75
2022/11/06 07:00:45;;;;;;;21.13;12.73;;;;;;;;;;733652;189;816422;-74
2022/11/06 07:03:10;;;;;;;15.70;9.60;;;;;;;;;;735575;188;815701;-75
2022/11/06 07:05:36;;;;;;;17.80;10.30;;;;;;;;;;733984;190;868639;-75
2022/11/06 07:08:02;;;;;;;19.03;9.43;;;;;;;;;;730476;190;918897;-74
2022/11/06 07:10:28;;;;;;;20.70;10.73;;;;;;;;;;737307;190;918717;-74
2022/11/06 07:12:54;;;;;;;19.90;10.63;;;;;;;;;;734914;188;817376;-74
2022/11/06 07:15:20;;;;;;;18.43;10.90;;;;;;;;;;732167;190;919981;-75
2022/11/06 07:17:46;;;;;;;15.10;8.60;;;;;;;;;;729635;190;1026024;-75
2022/11/06 07:20:12;;;;;;;17.87;8.90;;;;;;;;;;741380;184;917102;-75
2022/11/06 07:22:38;;;;;;;16.07;9.23;;;;;;;;;;733751;189;918967;-74
2022/11/06 07:25:04;;;;;;;14.50;9.30;;;;;;;;;;734792;188;918732;-74
2022/11/06 07:27:29;;;;;;;23.13;13.50;;;;;;;;;;736612;191;816063;-74
2022/11/06 07:29:55;;;;;;;17.13;9.73;;;;;;;;;;736638;187;918223;-74
2022/11/06 07:32:21;;;;;;;15.43;8.57;;;;;;;;;;734491;190;919526;-75
2022/11/06 07:34:47;;;;;;;16.83;9.03;;;;;;;;;;735078;190;917008;-74
2022/11/06 07:37:13;;;;;;;15.73;8.93;;;;;;;;;;735218;190;816440;-75
2022/11/06 07:39:39;;;;;;;18.40;8.77;;;;;;;;;;733035;188;628393;-74
2022/11/06 07:42:04;;;;;;;23.00;11.17;;;;;;;;;;737140;191;667957;-75
2022/11/06 07:44:30;;;;;;;18.13;7.00;;;;;;;;;;736458;188;617858;-75
2022/11/06 07:46:56;;;;;;;24.60;10.02;;;;;;;;;;735653;189;815943;-76
2022/11/06 07:49:22;;;;;;;14.80;6.53;;;;;;;;;;739038;188;626549;-75
2022/11/06 07:51:48;;;;;;;12.87;7.73;;;;;;;;;;737143;190;638133;-75
2022/11/06 07:54:14;;;;;;;23.03;11.00;;;;;;;;;;731245;190;983418;-75
2022/11/06 07:56:40;;;;;;;18.80;11.00;;;;;;;;;;735819;190;816292;-74
2022/11/06 07:59:05;;;;;;;15.23;10.80;;;;;;;;;;737000;189;637331;-75
2022/11/06 08:01:31;;;;;;;21.80;10.23;;;;;;;;;;733909;191;630585;-74
2022/11/06 08:03:57;;;;;;;16.13;7.87;;;;;;;;;;737668;189;620873;-74
2022/11/06 08:06:23;;;;;;;19.63;11.33;;;;;;;;;;740131;190;765505;-74
2022/11/06 08:08:49;;;;;;;60.17;25.77;;;;;;;;;;734139;191;1021344;-75
2022/11/06 08:11:15;;;;;;;31.97;11.37;;;;;;;;;;735201;190;826350;-75
2022/11/06 08:13:40;;;;;;;17.97;11.07;;;;;;;;;;733041;189;816924;-74
2022/11/06 08:16:06;;;;;;;32.83;16.60;;;;;;;;;;737601;190;816823;-75
2022/11/06 08:18:32;;;;;;;21.10;13.30;;;;;;;;;;732939;189;822860;-75
2022/11/06 08:20:58;;;;;;;26.50;16.27;;;;;;;;;;735905;190;1020558;-75
2022/11/06 08:23:24;;;;;;;29.37;15.50;;;;;;;;;;739494;189;777757;-74
2022/11/06 08:25:50;;;;;;;24.03;13.07;;;;;;;;;;731472;191;814905;-75
2022/11/06 08:28:16;;;;;;;23.40;12.10;;;;;;;;;;731788;190;815328;-75
2022/11/06 08:30:41;;;;;;;19.53;9.40;;;;;;;;;;735310;191;635458;-75
2022/11/06 08:33:07;;;;;;;11.37;7.57;;;;;;;;;;731332;188;638918;-76
2022/11/06 08:35:33;;;;;;;13.07;6.53;;;;;;;;;;734470;190;913317;-76
2022/11/06 08:37:59;;;;;;;14.17;8.80;;;;;;;;;;732880;188;919460;-75
2022/11/06 08:40:25;;;;;;;26.27;15.10;;;;;;;;;;732538;188;814751;-75
2022/11/06 08:42:51;;;;;;;35.70;15.70;;;;;;;;;;733742;190;1096597;-75
2022/11/06 08:45:17;;;;;;;24.57;11.70;;;;;;;;;;733434;190;1229391;-75
2022/11/06 08:47:42;;;;;;;32.23;13.03;;;;;;;;;;739139;189;782171;-75
2022/11/06 08:50:08;;;;;;;61.53;29.20;;;;;;;;;;738098;187;899868;-76
2022/11/06 08:52:34;;;;;;;28.10;19.67;;;;;;;;;;735286;190;917227;-75
2022/11/06 08:55:00;;;;;;;25.13;14.40;;;;;;;;;;735609;191;815132;-74
2022/11/06 08:57:27;;;;;;;27.57;16.03;;;;;;;;;;732053;191;911403;-75
2022/11/06 08:59:52;;;;;;;24.90;14.53;;;;;;;;;;735736;189;914223;-75
2022/11/06 09:02:19;;;;;;;27.03;12.57;;;;;;;;;;738739;190;918861;-76
2022/11/06 09:04:44;;;;;;;17.90;11.67;;;;;;;;;;735076;191;918810;-75
2022/11/06 09:07:10;;;;;;;17.13;10.43;;;;;;;;;;735359;189;920189;-75
2022/11/06 09:09:36;;;;;;;19.17;11.67;;;;;;;;;;732807;188;920882;-75
2022/11/06 09:12:02;;;;;;;19.60;10.80;;;;;;;;;;738416;190;813808;-75
2022/11/06 09:14:28;;;;;;;24.70;12.73;;;;;;;;;;734775;190;915431;-75
2022/11/06 09:16:54;;;;;;;23.37;11.13;;;;;;;;;;733676;190;915520;-76
2022/11/06 09:19:19;;;;;;;18.47;12.73;;;;;;;;;;739937;188;630390;-75
2022/11/06 09:21:45;;;;;;;19.40;9.70;;;;;;;;;;733329;189;721394;-76
2022/11/06 09:24:11;;;;;;;20.47;11.80;;;;;;;;;;732424;189;799029;-75
2022/11/06 09:26:37;;;;;;;23.53;12.83;;;;;;;;;;737090;190;857547;-75
2022/11/06 09:29:03;;;;;;;47.03;8.23;;;;;;;;;;730667;190;919157;-76
2022/11/06 09:31:29;;;;;;;27.07;11.80;;;;;;;;;;733389;189;915911;-75
2022/11/06 09:33:55;;;;;;;25.23;10.70;;;;;;;;;;726893;190;919191;-75
2022/11/06 09:36:21;;;;;;;15.98;9.18;;;;;;;;;;737018;189;817289;-75
2022/11/06 09:38:46;;;;;;;22.40;12.03;;;;;;;;;;732815;189;896548;-75
2022/11/06 09:41:17;;;;;;;18.17;11.20;;;;;;;;;;733775;189;815437;-75
2022/11/06 09:43:43;;;;;;;20.53;11.00;;;;;;;;;;737260;190;917524;-76
2022/11/06 09:46:11;;;;;;;22.73;12.13;;;;;;;;;;729775;189;815560;-75
2022/11/06 09:48:37;;;;;;;20.50;11.00;;;;;;;;;;731309;188;1021424;-74
2022/11/06 09:51:18;;;;;;;19.00;11.27;;;;;;;;;;730283;189;1027049;-72
2022/11/06 09:53:44;;;;;;;24.43;9.90;;;;;;;;;;738871;190;940588;-75
2022/11/06 09:56:10;;;;;;;28.80;11.80;;;;;;;;;;739133;190;953923;-75
2022/11/06 09:58:35;;;;;;;33.33;13.10;;;;;;;;;;734603;188;918023;-76
2022/11/06 10:01:08;;;;;;;18.87;11.57;;;;;;;;;;734418;189;921236;-75
2022/11/06 10:03:35;;;;;;;30.10;13.47;;;;;;;;;;734906;188;1021510;-76
2022/11/06 10:06:01;;;;;;;37.90;18.80;;;;;;;;;;735003;189;816916;-75
2022/11/06 10:08:27;;;;;;;36.20;16.63;;;;;;;;;;734050;188;919159;-75
2022/11/06 10:10:58;;;;;;;21.57;11.83;;;;;;;;;;734649;189;919889;-75
2022/11/06 10:13:40;;;;;;;24.40;11.57;;;;;;;;;;739621;188;816986;-75
2022/11/06 10:16:15;;;;;;;21.23;10.47;;;;;;;;;;739113;190;918845;-74
2022/11/06 10:18:44;;;;;;;22.98;14.00;;;;;;;;;;738187;191;1031307;-75
2022/11/06 10:21:10;;;;;;;15.30;8.90;;;;;;;;;;728332;190;918036;-73
2022/11/06 10:23:37;;;;;;;20.48;11.05;;;;;;;;;;733372;188;919198;-75
2022/11/06 10:26:08;;;;;;;27.30;12.50;;;;;;;;;;736595;190;904695;-75
2022/11/06 10:28:38;;;;;;;21.23;12.87;;;;;;;;;;737806;190;921076;-75
2022/11/06 10:31:19;;;;;;;31.47;14.20;;;;;;;;;;734277;190;918899;-75
2022/11/06 10:33:46;;;;;;;22.80;11.70;;;;;;;;;;729586;189;920041;-75
2022/11/06 10:36:12;;;;;;;22.33;12.87;;;;;;;;;;731246;190;918386;-75
2022/11/06 10:38:38;;;;;;;23.13;12.80;;;;;;;;;;737072;190;738941;-76
2022/11/06 10:41:04;;;;;;;23.10;11.40;;;;;;;;;;734545;190;917461;-75
2022/11/06 10:43:31;;;;;;;29.47;14.73;;;;;;;;;;731033;189;918643;-76
2022/11/06 10:45:59;;;;;;;20.60;12.20;;;;;;;;;;738915;190;816398;-76
2022/11/06 10:48:28;;;;;;;25.90;12.80;;;;;;;;;;739505;190;815870;-76
2022/11/06 10:50:59;;;;;;;27.48;14.07;;;;;;;;;;734763;190;918747;-75
2022/11/06 10:53:24;;;;;;;24.30;11.20;;;;;;;;;;733837;190;938840;-76
2022/11/06 10:55:56;;;;;;;16.73;9.50;;;;;;;;;;732694;190;917782;-76
2022/11/06 10:58:22;;;;;;;15.17;9.77;;;;;;;;;;739887;190;841278;-75
2022/11/06 11:00:49;;;;;;;22.30;10.00;;;;;;;;;;730011;191;918774;-76
2022/11/06 11:03:16;;;;;;;18.10;9.95;;;;;;;;;;734248;189;917625;-75
2022/11/06 11:05:41;;;;;;;24.30;11.17;;;;;;;;;;737506;190;920402;-75
2022/11/06 11:08:13;;;;;;;21.90;12.70;;;;;;;;;;730911;190;1041841;-74
2022/11/06 11:10:39;;;;;;;25.47;13.07;;;;;;;;;;735225;190;821324;-76
2022/11/06 11:13:05;;;;;;;21.03;11.97;;;;;;;;;;729438;190;920930;-75
2022/11/06 11:15:31;;;;;;;25.35;12.02;;;;;;;;;;738053;189;918424;-77
2022/11/06 11:18:03;;;;;;;21.40;12.43;;;;;;;;;;731952;190;919769;-75
2022/11/06 11:20:29;;;;;;;24.83;12.93;;;;;;;;;;735413;190;1020766;-75
2022/11/06 11:23:13;;;;;;;18.00;10.80;;;;;;;;;;738733;188;924803;-75
2022/11/06 11:25:38;;;;;;;28.20;13.67;;;;;;;;;;735619;189;871836;-74
2022/11/06 11:28:04;;;;;;;22.90;12.97;;;;;;;;;;742350;186;919419;-75
2022/11/06 11:30:30;;;;;;;24.70;13.20;;;;;;;;;;729349;191;918518;-75
2022/11/06 11:32:56;;;;;;;22.35;12.68;;;;;;;;;;730032;191;918826;-75
2022/11/06 11:35:27;;;;;;;23.40;12.00;;;;;;;;;;739207;190;917226;-75
2022/11/06 11:37:53;;;;;;;31.90;13.45;;;;;;;;;;734189;190;932024;-75
2022/11/06 11:40:34;;;;;;;27.30;13.00;;;;;;;;;;727447;190;919486;-75
2022/11/06 11:42:59;;;;;;;21.70;12.53;;;;;;;;;;733111;191;917871;-75
2022/11/06 11:45:25;;;;;;;25.77;14.73;;;;;;;;;;736451;190;920086;-76
2022/11/06 11:47:52;;;;;;;28.53;13.10;;;;;;;;;;733148;190;918883;-75
2022/11/06 11:50:18;;;;;;;25.03;12.70;;;;;;;;;;730193;190;917481;-75
2022/11/06 11:52:45;;;;;;;27.80;13.67;;;;;;;;;;732794;191;1021239;-75
2022/11/06 11:55:14;;;;;;;27.20;14.40;;;;;;;;;;736449;191;918854;-75
2022/11/06 11:57:39;;;;;;;32.10;14.60;;;;;;;;;;727046;190;918880;-75
2022/11/06 12:00:06;;;;;;;24.83;11.87;;;;;;;;;;729386;189;918849;-76
2022/11/06 12:02:34;;;;;;;25.30;12.27;;;;;;;;;;739721;190;818077;-76
2022/11/06 12:05:00;;;;;;;27.33;14.63;;;;;;;;;;733819;189;1000007;-76
2022/11/06 12:07:36;;;;;;;23.12;13.57;;;;;;;;;;727327;190;918977;-76
2022/11/06 12:10:02;;;;;;;32.33;13.33;;;;;;;;;;728503;190;917528;-76
2022/11/06 12:12:30;;;;;;;35.17;16.63;;;;;;;;;;733436;190;816284;-77
2022/11/06 12:15:01;;;;;;;26.77;16.73;;;;;;;;;;731621;188;920954;-75
2022/11/06 12:17:27;;;;;;;36.67;14.80;;;;;;;;;;737891;188;915802;-75
2022/11/06 12:19:53;;;;;;;30.67;17.00;;;;;;;;;;735983;188;920595;-77
2022/11/06 12:22:21;;;;;;;11.20;6.93;;;;;;;;;;738919;184;664785;-74
2022/11/06 12:24:48;;;;;;;26.23;14.33;;;;;;;;;;732645;189;918268;-75
2022/11/06 12:27:16;;;;;;;30.50;15.53;;;;;;;;;;732195;189;915332;-75
2022/11/06 12:29:43;;;;;;;29.97;14.30;;;;;;;;;;735871;190;916670;-76
2022/11/06 12:32:10;;;;;;;39.03;15.33;;;;;;;;;;734987;190;918511;-75
2022/11/06 12:34:36;;;;;;;27.63;15.00;;;;;;;;;;704243;196;916829;-74
2022/11/06 12:37:02;;;;;;;16.50;8.20;;;;;;;;;;733791;190;1021749;-76
2022/11/06 12:39:27;;;;;;;34.80;14.48;;;;;;;;;;736700;190;916665;-73
2022/11/06 12:41:53;;;;;;;23.97;12.07;;;;;;;;;;726794;190;995941;-74
2022/11/06 12:44:19;;;;;;;23.03;13.00;;;;;;;;;;737065;189;818207;-76
2022/11/06 12:46:57;;;;;;;26.17;12.60;;;;;;;;;;737313;190;615319;-76
2022/11/06 12:49:22;;;;;;;19.07;10.63;;;;;;;;;;734335;188;903561;-75
2022/11/06 12:51:54;;;;;;;24.70;14.43;;;;;;;;;;732266;189;915333;-76
2022/11/06 12:54:22;;;;;;;24.47;12.33;;;;;;;;;;732505;188;920579;-75
2022/11/06 12:57:05;;;;;;;32.50;16.70;;;;;;;;;;733434;190;814374;-75
2022/11/06 12:59:37;;;;;;;22.70;14.03;;;;;;;;;;735149;190;817179;-75
2022/11/06 13:02:09;;;;;;;32.23;16.97;;;;;;;;;;739103;190;614368;-75
2022/11/06 13:04:35;;;;;;;45.80;17.90;;;;;;;;;;736581;190;908869;-75
2022/11/06 13:07:07;;;;;;;28.00;15.07;;;;;;;;;;733022;190;912726;-75
2022/11/06 13:09:35;;;;;;;30.67;13.90;;;;;;;;;;728623;190;913548;-75
2022/11/06 13:12:06;;;;;;;32.77;15.50;;;;;;;;;;733427;190;912019;-75
2022/11/06 13:14:35;;;;;;;25.20;13.03;;;;;;;;;;737297;190;915934;-76
2022/11/06 13:17:01;;;;;;;33.37;16.23;;;;;;;;;;735780;190;911236;-75
2022/11/06 13:19:28;;;;;;;40.13;19.27;;;;;;;;;;731490;188;918475;-75
2022/11/06 13:21:57;;;;;;;29.23;15.40;;;;;;;;;;738599;189;928427;-75
2022/11/06 13:24:42;;;;;;;25.20;13.33;;;;;;;;;;740010;188;899032;-77
2022/11/06 13:27:10;;;;;;;47.40;20.20;;;;;;;;;;738094;187;905297;-75
2022/11/06 13:29:36;;;;;;;24.30;12.00;;;;;;;;;;734819;189;915683;-76
2022/11/06 13:32:02;;;;;;;57.43;24.10;;;;;;;;;;735117;190;913529;-76
2022/11/06 13:34:28;;;;;;;47.25;24.85;;;;;;;;;;740081;187;918651;-74
2022/11/06 13:36:54;;;;;;;33.80;16.10;;;;;;;;;;735825;190;911444;-76
2022/11/06 13:39:35;;;;;;;44.40;18.23;;;;;;;;;;734602;187;920783;-76
2022/11/06 13:42:01;;;;;;;41.77;17.83;;;;;;;;;;733737;189;940771;-78
2022/11/06 13:44:27;;;;;;;30.52;14.25;;;;;;;;;;737142;188;920611;-75
2022/11/06 13:46:54;;;;;;;28.40;13.60;;;;;;;;;;729277;189;918745;-76
2022/11/06 13:49:19;;;;;;;36.40;13.70;;;;;;;;;;729845;188;920218;-77
2022/11/06 13:51:48;;;;;;;27.02;12.30;;;;;;;;;;729481;190;816365;-77
2022/11/06 13:54:34;;;;;;;26.20;11.97;;;;;;;;;;736446;191;840508;-76
2022/11/06 13:57:06;;;;;;;30.63;14.30;;;;;;;;;;739992;190;918728;-74
2022/11/06 13:59:35;;;;;;;27.87;14.27;;;;;;;;;;740979;191;919210;-76
2022/11/06 14:02:01;;;;;;;38.37;15.47;;;;;;;;;;731386;191;816438;-76
2022/11/06 14:04:44;;;;;;;36.97;17.73;;;;;;;;;;728999;191;1020585;-76
2022/11/06 14:07:10;;;;;;;25.10;15.20;;;;;;;;;;729763;190;1021736;-75
2022/11/06 14:09:36;;;;;;;35.13;16.37;;;;;;;;;;733214;190;722107;-75
2022/11/06 14:12:03;;;;;;;28.42;16.75;;;;;;;;;;734908;191;919113;-76
2022/11/06 14:14:29;;;;;;;40.50;16.80;;;;;;;;;;728564;191;817002;-76
2022/11/06 14:17:09;;;;;;;36.30;15.70;;;;;;;;;;733559;191;921001;-76
2022/11/06 14:19:35;;;;;;;47.43;17.33;;;;;;;;;;735958;187;873232;-75
2022/11/06 14:22:06;;;;;;;42.13;17.40;;;;;;;;;;731925;189;918868;-76
2022/11/06 14:24:33;;;;;;;24.43;15.90;;;;;;;;;;729607;190;917589;-76